sensor_id;sensor_type;location;lat;lon;timestamp;P1;durP1;ratioP1;P2;durP2;ratioP2
30707;SDS011;17458;48.958;8.284;2022-09-13T00:00:52;6.32;;;4.03;;
30707;SDS011;17458;48.958;8.284;2022-09-13T00:03:36;6.88;;;4.57;;
30707;SDS011;17458;48.958;8.284;2022-09-13T00:06:20;6.38;;;4.80;;
30707;SDS011;17458;48.958;8.284;2022-09-13T00:09:05;13.82;;;4.70;;
30707;SDS011;17458;48.958;8.284;2022-09-13T00:11:49;10.68;;;5.45;;
30707;SDS011;17458;48.958;8.284;2022-09-13T00:14:34;6.13;;;4.30;;
30707;SDS011;17458;48.958;8.284;2022-09-13T00:17:18;8.80;;;5.10;;
30707;SDS011;17458;48.958;8.284;2022-09-13T00:20:02;5.57;;;4.43;;
30707;SDS011;17458;48.958;8.284;2022-09-13T00:22:47;6.57;;;4.68;;
30707;SDS011;17458;48.958;8.284;2022-09-13T00:25:31;9.48;;;4.75;;
30707;SDS011;17458;48.958;8.284;2022-09-13T00:28:15;7.00;;;5.30;;
30707;SDS011;17458;48.958;8.284;2022-09-13T00:31:00;6.53;;;4.60;;
30707;SDS011;17458;48.958;8.284;2022-09-13T00:33:48;5.53;;;4.28;;
30707;SDS011;17458;48.958;8.284;2022-09-13T00:36:33;5.97;;;5.38;;
30707;SDS011;17458;48.958;8.284;2022-09-13T00:39:17;6.28;;;4.75;;
30707;SDS011;17458;48.958;8.284;2022-09-13T00:42:01;6.60;;;4.85;;
30707;SDS011;17458;48.958;8.284;2022-09-13T00:47:43;8.00;;;4.47;;
30707;SDS011;17458;48.958;8.284;2022-09-13T00:50:43;5.05;;;4.60;;
30707;SDS011;17458;48.958;8.284;2022-09-13T00:53:31;6.60;;;4.72;;
30707;SDS011;17458;48.958;8.284;2022-09-13T00:56:20;12.30;;;5.13;;
30707;SDS011;17458;48.958;8.284;2022-09-13T00:59:14;7.75;;;4.75;;
30707;SDS011;17458;48.958;8.284;2022-09-13T01:02:05;12.23;;;5.10;;
30707;SDS011;17458;48.958;8.284;2022-09-13T01:04:50;7.78;;;4.47;;
30707;SDS011;17458;48.958;8.284;2022-09-13T01:07:34;7.07;;;4.57;;
30707;SDS011;17458;48.958;8.284;2022-09-13T01:10:18;11.15;;;4.65;;
30707;SDS011;17458;48.958;8.284;2022-09-13T01:13:07;10.13;;;4.47;;
30707;SDS011;17458;48.958;8.284;2022-09-13T01:15:58;7.15;;;4.65;;
30707;SDS011;17458;48.958;8.284;2022-09-13T01:18:42;16.40;;;7.15;;
30707;SDS011;17458;48.958;8.284;2022-09-13T01:21:32;8.18;;;4.18;;
30707;SDS011;17458;48.958;8.284;2022-09-13T01:27:38;6.18;;;4.63;;
30707;SDS011;17458;48.958;8.284;2022-09-13T01:48:58;33.65;;;16.27;;
30707;SDS011;17458;48.958;8.284;2022-09-13T01:52:00;98.75;;;42.97;;
30707;SDS011;17458;48.958;8.284;2022-09-13T01:58:00;63.78;;;35.25;;
30707;SDS011;17458;48.958;8.284;2022-09-13T02:01:03;24.25;;;13.93;;
30707;SDS011;17458;48.958;8.284;2022-09-13T02:04:09;17.73;;;8.75;;
30707;SDS011;17458;48.958;8.284;2022-09-13T02:07:06;13.60;;;8.40;;
30707;SDS011;17458;48.958;8.284;2022-09-13T02:09:59;11.93;;;6.47;;
30707;SDS011;17458;48.958;8.284;2022-09-13T02:12:49;10.65;;;5.75;;
30707;SDS011;17458;48.958;8.284;2022-09-13T02:15:46;8.65;;;4.68;;
30707;SDS011;17458;48.958;8.284;2022-09-13T02:18:33;6.68;;;4.50;;
30707;SDS011;17458;48.958;8.284;2022-09-13T02:21:23;5.80;;;5.18;;
30707;SDS011;17458;48.958;8.284;2022-09-13T02:24:15;16.83;;;5.55;;
30707;SDS011;17458;48.958;8.284;2022-09-13T02:27:02;7.43;;;4.88;;
30707;SDS011;17458;48.958;8.284;2022-09-13T02:29:52;5.45;;;4.78;;
30707;SDS011;17458;48.958;8.284;2022-09-13T02:32:58;6.25;;;4.38;;
30707;SDS011;17458;48.958;8.284;2022-09-13T02:35:48;5.32;;;4.82;;
30707;SDS011;17458;48.958;8.284;2022-09-13T02:38:37;6.97;;;4.63;;
30707;SDS011;17458;48.958;8.284;2022-09-13T02:41:35;9.30;;;4.95;;
30707;SDS011;17458;48.958;8.284;2022-09-13T02:44:33;9.75;;;4.78;;
30707;SDS011;17458;48.958;8.284;2022-09-13T02:50:23;8.15;;;5.20;;
30707;SDS011;17458;48.958;8.284;2022-09-13T02:53:28;8.63;;;6.20;;
30707;SDS011;17458;48.958;8.284;2022-09-13T02:59:16;6.43;;;4.85;;
30707;SDS011;17458;48.958;8.284;2022-09-13T03:02:04;9.13;;;5.45;;
30707;SDS011;17458;48.958;8.284;2022-09-13T03:04:49;5.95;;;4.80;;
30707;SDS011;17458;48.958;8.284;2022-09-13T03:07:34;7.35;;;4.57;;
30707;SDS011;17458;48.958;8.284;2022-09-13T03:10:17;9.43;;;4.55;;
30707;SDS011;17458;48.958;8.284;2022-09-13T03:13:06;6.45;;;5.53;;
30707;SDS011;17458;48.958;8.284;2022-09-13T03:16:10;10.02;;;5.22;;
30707;SDS011;17458;48.958;8.284;2022-09-13T03:25:36;7.43;;;4.72;;
30707;SDS011;17458;48.958;8.284;2022-09-13T03:28:52;5.55;;;4.28;;
30707;SDS011;17458;48.958;8.284;2022-09-13T03:31:44;8.30;;;5.20;;
30707;SDS011;17458;48.958;8.284;2022-09-13T03:34:42;10.32;;;5.70;;
30707;SDS011;17458;48.958;8.284;2022-09-13T03:37:38;6.15;;;5.55;;
30707;SDS011;17458;48.958;8.284;2022-09-13T03:43:22;7.65;;;5.10;;
30707;SDS011;17458;48.958;8.284;2022-09-13T03:46:27;5.63;;;5.05;;
30707;SDS011;17458;48.958;8.284;2022-09-13T03:49:13;5.82;;;4.90;;
30707;SDS011;17458;48.958;8.284;2022-09-13T03:52:00;4.72;;;4.22;;
30707;SDS011;17458;48.958;8.284;2022-09-13T03:54:45;10.13;;;4.30;;
30707;SDS011;17458;48.958;8.284;2022-09-13T03:57:29;9.45;;;4.65;;
30707;SDS011;17458;48.958;8.284;2022-09-13T04:00:13;12.23;;;5.60;;
30707;SDS011;17458;48.958;8.284;2022-09-13T04:02:57;13.13;;;4.10;;
30707;SDS011;17458;48.958;8.284;2022-09-13T04:05:42;6.70;;;4.80;;
30707;SDS011;17458;48.958;8.284;2022-09-13T04:08:26;6.93;;;4.63;;
30707;SDS011;17458;48.958;8.284;2022-09-13T04:11:10;5.20;;;4.40;;
30707;SDS011;17458;48.958;8.284;2022-09-13T04:13:53;9.38;;;4.60;;
30707;SDS011;17458;48.958;8.284;2022-09-13T04:16:38;5.63;;;4.45;;
30707;SDS011;17458;48.958;8.284;2022-09-13T04:19:22;9.88;;;4.80;;
30707;SDS011;17458;48.958;8.284;2022-09-13T04:22:07;10.00;;;4.68;;
30707;SDS011;17458;48.958;8.284;2022-09-13T04:24:51;10.20;;;4.78;;
30707;SDS011;17458;48.958;8.284;2022-09-13T04:27:36;4.28;;;3.88;;
30707;SDS011;17458;48.958;8.284;2022-09-13T04:30:19;5.03;;;4.32;;
30707;SDS011;17458;48.958;8.284;2022-09-13T04:33:04;13.23;;;4.30;;
30707;SDS011;17458;48.958;8.284;2022-09-13T04:35:52;5.13;;;4.65;;
30707;SDS011;17458;48.958;8.284;2022-09-13T04:38:37;7.60;;;4.10;;
30707;SDS011;17458;48.958;8.284;2022-09-13T04:41:21;8.65;;;4.63;;
30707;SDS011;17458;48.958;8.284;2022-09-13T04:44:05;4.53;;;4.13;;
30707;SDS011;17458;48.958;8.284;2022-09-13T04:46:49;9.23;;;4.63;;
30707;SDS011;17458;48.958;8.284;2022-09-13T04:49:33;4.78;;;4.28;;
30707;SDS011;17458;48.958;8.284;2022-09-13T04:52:17;8.98;;;4.47;;
30707;SDS011;17458;48.958;8.284;2022-09-13T04:55:01;4.72;;;4.30;;
30707;SDS011;17458;48.958;8.284;2022-09-13T04:57:45;6.65;;;4.05;;
30707;SDS011;17458;48.958;8.284;2022-09-13T05:00:29;6.68;;;4.30;;
30707;SDS011;17458;48.958;8.284;2022-09-13T05:03:14;5.03;;;4.45;;
30707;SDS011;17458;48.958;8.284;2022-09-13T05:06:02;9.55;;;4.60;;
30707;SDS011;17458;48.958;8.284;2022-09-13T05:08:50;6.65;;;4.22;;
30707;SDS011;17458;48.958;8.284;2022-09-13T05:11:38;10.43;;;4.53;;
30707;SDS011;17458;48.958;8.284;2022-09-13T05:14:22;8.27;;;4.28;;
30707;SDS011;17458;48.958;8.284;2022-09-13T05:17:06;10.00;;;4.25;;
30707;SDS011;17458;48.958;8.284;2022-09-13T05:19:50;8.77;;;4.55;;
30707;SDS011;17458;48.958;8.284;2022-09-13T05:22:34;8.38;;;5.18;;
30707;SDS011;17458;48.958;8.284;2022-09-13T05:25:17;28.15;;;7.65;;
30707;SDS011;17458;48.958;8.284;2022-09-13T05:28:01;37.65;;;9.88;;
30707;SDS011;17458;48.958;8.284;2022-09-13T05:33:39;39.38;;;9.80;;
30707;SDS011;17458;48.958;8.284;2022-09-13T05:36:23;26.52;;;7.53;;
30707;SDS011;17458;48.958;8.284;2022-09-13T05:39:11;45.47;;;12.00;;
30707;SDS011;17458;48.958;8.284;2022-09-13T05:41:57;46.42;;;8.75;;
30707;SDS011;17458;48.958;8.284;2022-09-13T05:44:41;21.85;;;7.03;;
30707;SDS011;17458;48.958;8.284;2022-09-13T05:47:25;26.10;;;6.75;;
30707;SDS011;17458;48.958;8.284;2022-09-13T05:50:09;16.35;;;4.88;;
30707;SDS011;17458;48.958;8.284;2022-09-13T05:52:54;17.85;;;5.35;;
30707;SDS011;17458;48.958;8.284;2022-09-13T05:55:38;13.20;;;5.72;;
30707;SDS011;17458;48.958;8.284;2022-09-13T05:58:22;14.82;;;5.57;;
30707;SDS011;17458;48.958;8.284;2022-09-13T06:01:06;14.07;;;5.38;;
30707;SDS011;17458;48.958;8.284;2022-09-13T06:03:51;12.15;;;4.80;;
30707;SDS011;17458;48.958;8.284;2022-09-13T06:06:36;16.55;;;4.50;;
30707;SDS011;17458;48.958;8.284;2022-09-13T06:09:20;8.73;;;4.72;;
30707;SDS011;17458;48.958;8.284;2022-09-13T06:12:04;18.05;;;5.13;;
30707;SDS011;17458;48.958;8.284;2022-09-13T06:14:48;15.77;;;4.32;;
30707;SDS011;17458;48.958;8.284;2022-09-13T06:17:32;6.00;;;4.60;;
30707;SDS011;17458;48.958;8.284;2022-09-13T06:20:16;10.65;;;4.15;;
30707;SDS011;17458;48.958;8.284;2022-09-13T06:23:00;8.32;;;3.75;;
30707;SDS011;17458;48.958;8.284;2022-09-13T06:25:44;7.78;;;3.80;;
30707;SDS011;17458;48.958;8.284;2022-09-13T06:28:28;17.88;;;3.97;;
30707;SDS011;17458;48.958;8.284;2022-09-13T06:31:12;15.48;;;4.53;;
30707;SDS011;17458;48.958;8.284;2022-09-13T06:33:58;11.07;;;3.70;;
30707;SDS011;17458;48.958;8.284;2022-09-13T06:36:45;7.10;;;3.95;;
30707;SDS011;17458;48.958;8.284;2022-09-13T06:39:28;8.35;;;3.65;;
30707;SDS011;17458;48.958;8.284;2022-09-13T06:42:14;5.25;;;4.03;;
30707;SDS011;17458;48.958;8.284;2022-09-13T06:44:59;10.90;;;4.05;;
30707;SDS011;17458;48.958;8.284;2022-09-13T06:47:43;6.82;;;4.35;;
30707;SDS011;17458;48.958;8.284;2022-09-13T06:50:27;17.33;;;4.15;;
30707;SDS011;17458;48.958;8.284;2022-09-13T06:53:12;7.47;;;4.32;;
30707;SDS011;17458;48.958;8.284;2022-09-13T06:58:55;15.32;;;3.47;;
30707;SDS011;17458;48.958;8.284;2022-09-13T07:01:41;8.05;;;3.72;;
30707;SDS011;17458;48.958;8.284;2022-09-13T07:04:26;12.98;;;3.45;;
30707;SDS011;17458;48.958;8.284;2022-09-13T07:07:14;10.75;;;3.42;;
30707;SDS011;17458;48.958;8.284;2022-09-13T07:09:58;8.60;;;3.83;;
30707;SDS011;17458;48.958;8.284;2022-09-13T07:12:43;10.93;;;3.30;;
30707;SDS011;17458;48.958;8.284;2022-09-13T07:15:27;18.67;;;3.33;;
30707;SDS011;17458;48.958;8.284;2022-09-13T07:18:11;5.20;;;3.08;;
30707;SDS011;17458;48.958;8.284;2022-09-13T07:21:00;9.80;;;3.15;;
30707;SDS011;17458;48.958;8.284;2022-09-13T07:23:49;14.02;;;3.13;;
30707;SDS011;17458;48.958;8.284;2022-09-13T07:26:35;12.80;;;3.33;;
30707;SDS011;17458;48.958;8.284;2022-09-13T07:29:20;24.83;;;5.45;;
30707;SDS011;17458;48.958;8.284;2022-09-13T07:32:06;16.20;;;4.00;;
30707;SDS011;17458;48.958;8.284;2022-09-13T07:34:50;7.57;;;2.90;;
30707;SDS011;17458;48.958;8.284;2022-09-13T07:37:34;7.45;;;3.63;;
30707;SDS011;17458;48.958;8.284;2022-09-13T07:40:18;7.32;;;3.63;;
30707;SDS011;17458;48.958;8.284;2022-09-13T07:43:01;19.38;;;5.03;;
30707;SDS011;17458;48.958;8.284;2022-09-13T07:45:45;10.32;;;3.28;;
30707;SDS011;17458;48.958;8.284;2022-09-13T07:48:30;8.02;;;3.55;;
30707;SDS011;17458;48.958;8.284;2022-09-13T07:51:15;5.18;;;3.55;;
30707;SDS011;17458;48.958;8.284;2022-09-13T07:54:05;5.32;;;3.50;;
30707;SDS011;17458;48.958;8.284;2022-09-13T07:56:52;12.48;;;3.53;;
30707;SDS011;17458;48.958;8.284;2022-09-13T07:59:36;3.92;;;2.90;;
30707;SDS011;17458;48.958;8.284;2022-09-13T08:02:21;10.15;;;3.90;;
30707;SDS011;17458;48.958;8.284;2022-09-13T08:05:05;4.72;;;3.45;;
30707;SDS011;17458;48.958;8.284;2022-09-13T08:07:49;4.78;;;3.35;;
30707;SDS011;17458;48.958;8.284;2022-09-13T08:10:33;5.63;;;3.75;;
30707;SDS011;17458;48.958;8.284;2022-09-13T08:13:18;5.10;;;3.38;;
30707;SDS011;17458;48.958;8.284;2022-09-13T08:16:05;12.20;;;3.80;;
30707;SDS011;17458;48.958;8.284;2022-09-13T08:18:50;4.97;;;3.00;;
30707;SDS011;17458;48.958;8.284;2022-09-13T08:21:36;10.80;;;3.95;;
30707;SDS011;17458;48.958;8.284;2022-09-13T08:24:21;7.15;;;3.22;;
30707;SDS011;17458;48.958;8.284;2022-09-13T08:27:06;9.02;;;3.40;;
30707;SDS011;17458;48.958;8.284;2022-09-13T08:29:50;4.85;;;3.25;;
30707;SDS011;17458;48.958;8.284;2022-09-13T08:32:34;5.57;;;3.30;;
30707;SDS011;17458;48.958;8.284;2022-09-13T08:35:18;8.52;;;3.00;;
30707;SDS011;17458;48.958;8.284;2022-09-13T08:38:02;6.43;;;3.30;;
30707;SDS011;17458;48.958;8.284;2022-09-13T08:40:49;10.52;;;3.53;;
30707;SDS011;17458;48.958;8.284;2022-09-13T08:43:43;4.32;;;3.05;;
30707;SDS011;17458;48.958;8.284;2022-09-13T08:46:40;8.90;;;2.75;;
30707;SDS011;17458;48.958;8.284;2022-09-13T08:52:29;5.15;;;2.80;;
30707;SDS011;17458;48.958;8.284;2022-09-13T08:55:27;4.22;;;2.45;;
30707;SDS011;17458;48.958;8.284;2022-09-13T08:58:32;3.22;;;2.08;;
30707;SDS011;17458;48.958;8.284;2022-09-13T09:01:29;4.82;;;2.47;;
30707;SDS011;17458;48.958;8.284;2022-09-13T09:04:33;6.72;;;2.47;;
30707;SDS011;17458;48.958;8.284;2022-09-13T09:07:20;12.98;;;2.90;;
30707;SDS011;17458;48.958;8.284;2022-09-13T09:10:21;7.57;;;2.92;;
30707;SDS011;17458;48.958;8.284;2022-09-13T09:15:51;5.45;;;2.45;;
30707;SDS011;17458;48.958;8.284;2022-09-13T09:18:37;5.57;;;2.92;;
30707;SDS011;17458;48.958;8.284;2022-09-13T09:21:25;6.60;;;2.75;;
30707;SDS011;17458;48.958;8.284;2022-09-13T09:24:14;4.20;;;2.90;;
30707;SDS011;17458;48.958;8.284;2022-09-13T09:27:04;5.28;;;2.40;;
30707;SDS011;17458;48.958;8.284;2022-09-13T09:30:02;10.48;;;2.53;;
30707;SDS011;17458;48.958;8.284;2022-09-13T09:39:03;3.20;;;2.22;;
30707;SDS011;17458;48.958;8.284;2022-09-13T09:41:48;3.10;;;2.28;;
30707;SDS011;17458;48.958;8.284;2022-09-13T09:44:32;4.18;;;2.45;;
30707;SDS011;17458;48.958;8.284;2022-09-13T09:47:18;3.33;;;2.60;;
30707;SDS011;17458;48.958;8.284;2022-09-13T09:50:12;3.88;;;2.47;;
30707;SDS011;17458;48.958;8.284;2022-09-13T09:53:02;2.15;;;1.80;;
30707;SDS011;17458;48.958;8.284;2022-09-13T09:55:58;9.90;;;2.28;;
30707;SDS011;17458;48.958;8.284;2022-09-13T09:58:45;5.40;;;2.00;;
30707;SDS011;17458;48.958;8.284;2022-09-13T10:01:30;2.22;;;1.80;;
30707;SDS011;17458;48.958;8.284;2022-09-13T10:04:18;6.07;;;2.42;;
30707;SDS011;17458;48.958;8.284;2022-09-13T10:10:57;6.20;;;1.90;;
30707;SDS011;17458;48.958;8.284;2022-09-13T10:13:27;4.40;;;1.70;;
30707;SDS011;17458;48.958;8.284;2022-09-13T10:16:24;4.75;;;1.70;;
30707;SDS011;17458;48.958;8.284;2022-09-13T10:19:23;6.72;;;1.75;;
30707;SDS011;17458;48.958;8.284;2022-09-13T10:22:11;3.47;;;1.52;;
30707;SDS011;17458;48.958;8.284;2022-09-13T10:25:12;7.72;;;1.60;;
30707;SDS011;17458;48.958;8.284;2022-09-13T10:28:11;5.32;;;1.65;;
30707;SDS011;17458;48.958;8.284;2022-09-13T10:31:04;2.50;;;1.58;;
30707;SDS011;17458;48.958;8.284;2022-09-13T10:33:56;2.88;;;1.50;;
30707;SDS011;17458;48.958;8.284;2022-09-13T10:36:51;4.53;;;1.80;;
30707;SDS011;17458;48.958;8.284;2022-09-13T10:39:36;4.07;;;1.70;;
30707;SDS011;17458;48.958;8.284;2022-09-13T10:42:21;3.67;;;1.67;;
30707;SDS011;17458;48.958;8.284;2022-09-13T10:45:18;5.00;;;1.80;;
30707;SDS011;17458;48.958;8.284;2022-09-13T10:48:12;2.25;;;1.60;;
30707;SDS011;17458;48.958;8.284;2022-09-13T10:53:43;4.50;;;1.83;;
30707;SDS011;17458;48.958;8.284;2022-09-13T10:56:27;2.42;;;1.67;;
30707;SDS011;17458;48.958;8.284;2022-09-13T10:59:15;4.53;;;1.70;;
30707;SDS011;17458;48.958;8.284;2022-09-13T11:23:05;3.58;;;1.45;;
30707;SDS011;17458;48.958;8.284;2022-09-13T11:26:10;7.85;;;3.75;;
30707;SDS011;17458;48.958;8.284;2022-09-13T11:32:16;10.05;;;1.90;;
30707;SDS011;17458;48.958;8.284;2022-09-13T11:48:05;1.65;;;1.42;;
30707;SDS011;17458;48.958;8.284;2022-09-13T11:57:28;1.55;;;1.38;;
30707;SDS011;17458;48.958;8.284;2022-09-13T12:00:29;6.18;;;1.50;;
30707;SDS011;17458;48.958;8.284;2022-09-13T12:03:30;6.10;;;1.80;;
30707;SDS011;17458;48.958;8.284;2022-09-13T12:06:42;3.15;;;1.85;;
30707;SDS011;17458;48.958;8.284;2022-09-13T12:09:32;4.65;;;2.15;;
30707;SDS011;17458;48.958;8.284;2022-09-13T12:12:21;9.82;;;1.60;;
30707;SDS011;17458;48.958;8.284;2022-09-13T12:15:13;3.22;;;1.50;;
30707;SDS011;17458;48.958;8.284;2022-09-13T12:18:08;12.60;;;2.00;;
30707;SDS011;17458;48.958;8.284;2022-09-13T12:20:59;11.15;;;2.13;;
30707;SDS011;17458;48.958;8.284;2022-09-13T12:29:52;3.55;;;1.55;;
30707;SDS011;17458;48.958;8.284;2022-09-13T12:32:40;2.78;;;1.60;;
30707;SDS011;17458;48.958;8.284;2022-09-13T12:35:38;5.18;;;1.95;;
30707;SDS011;17458;48.958;8.284;2022-09-13T12:41:42;4.32;;;2.10;;
30707;SDS011;17458;48.958;8.284;2022-09-13T12:47:40;3.50;;;1.00;;
30707;SDS011;17458;48.958;8.284;2022-09-13T12:56:52;4.75;;;1.10;;
30707;SDS011;17458;48.958;8.284;2022-09-13T12:59:54;9.57;;;1.33;;
30707;SDS011;17458;48.958;8.284;2022-09-13T13:06:06;1.45;;;1.15;;
30707;SDS011;17458;48.958;8.284;2022-09-13T13:09:03;5.25;;;1.30;;
30707;SDS011;17458;48.958;8.284;2022-09-13T13:12:11;5.43;;;1.23;;
30707;SDS011;17458;48.958;8.284;2022-09-13T13:17:54;6.30;;;1.42;;
30707;SDS011;17458;48.958;8.284;2022-09-13T13:27:02;5.25;;;1.50;;
30707;SDS011;17458;48.958;8.284;2022-09-13T13:30:38;8.02;;;0.90;;
30707;SDS011;17458;48.958;8.284;2022-09-13T13:33:25;5.88;;;1.25;;
30707;SDS011;17458;48.958;8.284;2022-09-13T13:36:19;4.95;;;0.90;;
30707;SDS011;17458;48.958;8.284;2022-09-13T13:41:56;2.85;;;1.20;;
30707;SDS011;17458;48.958;8.284;2022-09-13T13:50:17;3.95;;;0.68;;
30707;SDS011;17458;48.958;8.284;2022-09-13T13:53:19;2.15;;;0.95;;
30707;SDS011;17458;48.958;8.284;2022-09-13T13:56:07;2.20;;;0.80;;
30707;SDS011;17458;48.958;8.284;2022-09-13T14:02:30;2.97;;;0.90;;
30707;SDS011;17458;48.958;8.284;2022-09-13T14:05:31;1.33;;;0.85;;
30707;SDS011;17458;48.958;8.284;2022-09-13T14:21:02;4.13;;;1.45;;
30707;SDS011;17458;48.958;8.284;2022-09-13T14:23:48;5.55;;;1.50;;
30707;SDS011;17458;48.958;8.284;2022-09-13T14:26:32;3.20;;;1.52;;
30707;SDS011;17458;48.958;8.284;2022-09-13T14:29:18;8.02;;;1.48;;
30707;SDS011;17458;48.958;8.284;2022-09-13T14:32:04;1.42;;;1.15;;
30707;SDS011;17458;48.958;8.284;2022-09-13T14:37:42;1.30;;;1.20;;
30707;SDS011;17458;48.958;8.284;2022-09-13T14:40:25;6.25;;;1.00;;
30707;SDS011;17458;48.958;8.284;2022-09-13T14:43:28;1.77;;;1.20;;
30707;SDS011;17458;48.958;8.284;2022-09-13T14:46:16;2.25;;;1.05;;
30707;SDS011;17458;48.958;8.284;2022-09-13T14:49:09;2.42;;;1.10;;
30707;SDS011;17458;48.958;8.284;2022-09-13T14:52:15;2.88;;;1.17;;
30707;SDS011;17458;48.958;8.284;2022-09-13T14:55:10;2.28;;;0.95;;
30707;SDS011;17458;48.958;8.284;2022-09-13T14:58:00;5.72;;;1.40;;
30707;SDS011;17458;48.958;8.284;2022-09-13T15:00:48;4.00;;;1.52;;
30707;SDS011;17458;48.958;8.284;2022-09-13T15:03:39;2.03;;;0.98;;
30707;SDS011;17458;48.958;8.284;2022-09-13T15:06:26;1.40;;;1.10;;
30707;SDS011;17458;48.958;8.284;2022-09-13T15:09:22;2.95;;;1.45;;
30707;SDS011;17458;48.958;8.284;2022-09-13T15:12:19;2.55;;;1.38;;
30707;SDS011;17458;48.958;8.284;2022-09-13T15:18:31;3.63;;;1.05;;
30707;SDS011;17458;48.958;8.284;2022-09-13T15:21:16;1.58;;;1.05;;
30707;SDS011;17458;48.958;8.284;2022-09-13T15:24:01;8.82;;;1.48;;
30707;SDS011;17458;48.958;8.284;2022-09-13T15:26:44;5.97;;;1.30;;
30707;SDS011;17458;48.958;8.284;2022-09-13T15:29:28;4.82;;;1.30;;
30707;SDS011;17458;48.958;8.284;2022-09-13T15:32:21;1.77;;;1.38;;
30707;SDS011;17458;48.958;8.284;2022-09-13T15:35:25;6.03;;;1.25;;
30707;SDS011;17458;48.958;8.284;2022-09-13T15:38:26;3.88;;;1.35;;
30707;SDS011;17458;48.958;8.284;2022-09-13T15:41:17;2.65;;;1.05;;
30707;SDS011;17458;48.958;8.284;2022-09-13T15:44:03;4.30;;;1.65;;
30707;SDS011;17458;48.958;8.284;2022-09-13T15:46:53;6.70;;;1.52;;
30707;SDS011;17458;48.958;8.284;2022-09-13T15:49:39;2.03;;;1.13;;
30707;SDS011;17458;48.958;8.284;2022-09-13T15:52:29;3.78;;;1.38;;
30707;SDS011;17458;48.958;8.284;2022-09-13T15:55:13;6.80;;;2.65;;
30707;SDS011;17458;48.958;8.284;2022-09-13T15:57:57;8.07;;;2.08;;
30707;SDS011;17458;48.958;8.284;2022-09-13T16:00:40;9.45;;;1.58;;
30707;SDS011;17458;48.958;8.284;2022-09-13T16:03:24;5.78;;;1.40;;
30707;SDS011;17458;48.958;8.284;2022-09-13T16:06:09;1.30;;;1.13;;
30707;SDS011;17458;48.958;8.284;2022-09-13T16:08:53;5.15;;;1.75;;
30707;SDS011;17458;48.958;8.284;2022-09-13T16:11:37;3.72;;;1.20;;
30707;SDS011;17458;48.958;8.284;2022-09-13T16:14:21;2.13;;;1.20;;
30707;SDS011;17458;48.958;8.284;2022-09-13T16:17:19;3.28;;;1.42;;
30707;SDS011;17458;48.958;8.284;2022-09-13T16:20:04;4.25;;;1.45;;
30707;SDS011;17458;48.958;8.284;2022-09-13T16:22:51;9.60;;;1.52;;
30707;SDS011;17458;48.958;8.284;2022-09-13T16:25:35;4.03;;;1.17;;
30707;SDS011;17458;48.958;8.284;2022-09-13T16:28:20;4.57;;;2.20;;
30707;SDS011;17458;48.958;8.284;2022-09-13T16:31:04;5.03;;;1.98;;
30707;SDS011;17458;48.958;8.284;2022-09-13T16:33:49;3.67;;;1.70;;
30707;SDS011;17458;48.958;8.284;2022-09-13T16:36:33;27.67;;;2.35;;
30707;SDS011;17458;48.958;8.284;2022-09-13T16:39:17;12.88;;;1.83;;
30707;SDS011;17458;48.958;8.284;2022-09-13T16:42:02;8.65;;;1.38;;
30707;SDS011;17458;48.958;8.284;2022-09-13T16:44:47;2.67;;;1.73;;
30707;SDS011;17458;48.958;8.284;2022-09-13T16:47:32;14.93;;;2.70;;
30707;SDS011;17458;48.958;8.284;2022-09-13T16:50:16;12.98;;;2.10;;
30707;SDS011;17458;48.958;8.284;2022-09-13T16:53:00;7.82;;;1.73;;
30707;SDS011;17458;48.958;8.284;2022-09-13T16:55:44;6.13;;;1.83;;
30707;SDS011;17458;48.958;8.284;2022-09-13T16:58:28;15.20;;;2.50;;
30707;SDS011;17458;48.958;8.284;2022-09-13T17:01:13;12.30;;;1.73;;
30707;SDS011;17458;48.958;8.284;2022-09-13T17:03:59;10.20;;;1.70;;
30707;SDS011;17458;48.958;8.284;2022-09-13T17:06:43;4.88;;;1.42;;
30707;SDS011;17458;48.958;8.284;2022-09-13T17:09:27;6.13;;;1.45;;
30707;SDS011;17458;48.958;8.284;2022-09-13T17:12:13;5.70;;;1.80;;
30707;SDS011;17458;48.958;8.284;2022-09-13T17:14:57;6.72;;;2.20;;
30707;SDS011;17458;48.958;8.284;2022-09-13T17:17:42;6.00;;;1.77;;
30707;SDS011;17458;48.958;8.284;2022-09-13T17:20:26;13.23;;;2.08;;
30707;SDS011;17458;48.958;8.284;2022-09-13T17:23:10;3.88;;;2.10;;
30707;SDS011;17458;48.958;8.284;2022-09-13T17:25:54;8.25;;;1.58;;
30707;SDS011;17458;48.958;8.284;2022-09-13T17:28:38;11.43;;;1.42;;
30707;SDS011;17458;48.958;8.284;2022-09-13T17:31:22;4.68;;;1.80;;
30707;SDS011;17458;48.958;8.284;2022-09-13T17:34:06;3.13;;;1.08;;
30707;SDS011;17458;48.958;8.284;2022-09-13T17:36:51;5.70;;;1.98;;
30707;SDS011;17458;48.958;8.284;2022-09-13T17:39:35;3.63;;;1.77;;
30707;SDS011;17458;48.958;8.284;2022-09-13T17:42:19;5.50;;;1.42;;
30707;SDS011;17458;48.958;8.284;2022-09-13T17:45:03;5.72;;;1.70;;
30707;SDS011;17458;48.958;8.284;2022-09-13T17:47:47;3.67;;;1.70;;
30707;SDS011;17458;48.958;8.284;2022-09-13T17:50:31;9.65;;;2.75;;
30707;SDS011;17458;48.958;8.284;2022-09-13T17:53:15;4.47;;;1.85;;
30707;SDS011;17458;48.958;8.284;2022-09-13T17:55:59;4.43;;;1.60;;
30707;SDS011;17458;48.958;8.284;2022-09-13T17:58:43;1.88;;;1.33;;
30707;SDS011;17458;48.958;8.284;2022-09-13T18:01:28;4.60;;;1.35;;
30707;SDS011;17458;48.958;8.284;2022-09-13T18:04:13;5.68;;;1.95;;
30707;SDS011;17458;48.958;8.284;2022-09-13T18:06:58;4.38;;;2.00;;
30707;SDS011;17458;48.958;8.284;2022-09-13T18:09:42;7.22;;;1.75;;
30707;SDS011;17458;48.958;8.284;2022-09-13T18:12:27;5.05;;;1.90;;
30707;SDS011;17458;48.958;8.284;2022-09-13T18:15:11;5.78;;;2.00;;
30707;SDS011;17458;48.958;8.284;2022-09-13T18:17:55;4.47;;;1.92;;
30707;SDS011;17458;48.958;8.284;2022-09-13T18:20:43;5.60;;;2.08;;
30707;SDS011;17458;48.958;8.284;2022-09-13T18:23:29;2.83;;;1.90;;
30707;SDS011;17458;48.958;8.284;2022-09-13T18:26:16;2.13;;;1.40;;
30707;SDS011;17458;48.958;8.284;2022-09-13T18:29:02;4.75;;;2.08;;
30707;SDS011;17458;48.958;8.284;2022-09-13T18:31:48;5.90;;;2.42;;
30707;SDS011;17458;48.958;8.284;2022-09-13T18:34:32;4.10;;;1.77;;
30707;SDS011;17458;48.958;8.284;2022-09-13T18:37:16;8.68;;;1.83;;
30707;SDS011;17458;48.958;8.284;2022-09-13T18:39:59;2.60;;;2.13;;
30707;SDS011;17458;48.958;8.284;2022-09-13T18:42:44;5.28;;;1.85;;
30707;SDS011;17458;48.958;8.284;2022-09-13T18:45:28;2.95;;;2.25;;
30707;SDS011;17458;48.958;8.284;2022-09-13T18:48:12;3.53;;;2.28;;
30707;SDS011;17458;48.958;8.284;2022-09-13T18:50:56;5.38;;;1.98;;
30707;SDS011;17458;48.958;8.284;2022-09-13T18:53:40;8.93;;;2.25;;
30707;SDS011;17458;48.958;8.284;2022-09-13T18:56:26;9.27;;;2.40;;
30707;SDS011;17458;48.958;8.284;2022-09-13T18:59:12;7.03;;;2.50;;
30707;SDS011;17458;48.958;8.284;2022-09-13T19:01:56;10.38;;;2.00;;
30707;SDS011;17458;48.958;8.284;2022-09-13T19:04:41;6.65;;;2.30;;
30707;SDS011;17458;48.958;8.284;2022-09-13T19:07:25;8.38;;;2.08;;
30707;SDS011;17458;48.958;8.284;2022-09-13T19:10:09;3.88;;;2.03;;
30707;SDS011;17458;48.958;8.284;2022-09-13T19:12:52;8.32;;;2.53;;
30707;SDS011;17458;48.958;8.284;2022-09-13T19:15:36;2.58;;;2.15;;
30707;SDS011;17458;48.958;8.284;2022-09-13T19:18:20;2.65;;;2.08;;
30707;SDS011;17458;48.958;8.284;2022-09-13T19:21:07;5.60;;;2.30;;
30707;SDS011;17458;48.958;8.284;2022-09-13T19:24:02;7.78;;;2.40;;
30707;SDS011;17458;48.958;8.284;2022-09-13T19:26:48;3.65;;;2.40;;
30707;SDS011;17458;48.958;8.284;2022-09-13T19:29:33;3.97;;;2.53;;
30707;SDS011;17458;48.958;8.284;2022-09-13T19:32:17;7.97;;;3.05;;
30707;SDS011;17458;48.958;8.284;2022-09-13T19:35:02;6.15;;;3.00;;
30707;SDS011;17458;48.958;8.284;2022-09-13T19:37:46;4.18;;;2.33;;
30707;SDS011;17458;48.958;8.284;2022-09-13T19:40:30;5.57;;;2.47;;
30707;SDS011;17458;48.958;8.284;2022-09-13T19:43:16;4.25;;;2.10;;